createdAt,value
2019-02-18T00:01:28.589Z,20.82
2019-02-18T00:03:59.410Z,12.58
2019-02-18T00:06:27.807Z,16.73
2019-02-18T00:08:56.561Z,13.48
2019-02-18T00:11:24.856Z,10.48
2019-02-18T00:13:52.836Z,12.43
2019-02-18T00:16:21.147Z,15.88
2019-02-18T00:18:49.786Z,15.35
2019-02-18T00:21:17.998Z,14.45
2019-02-18T00:23:46.345Z,13.90
2019-02-18T00:26:14.479Z,18.35
2019-02-18T00:28:42.598Z,14.60
2019-02-18T00:31:10.754Z,14.75
2019-02-18T00:33:39.172Z,13.75
2019-02-18T00:36:07.575Z,13.32
2019-02-18T00:38:35.585Z,16.97
2019-02-18T00:41:03.891Z,15.03
2019-02-18T00:43:32.212Z,15.58
2019-02-18T00:46:00.608Z,17.67
2019-02-18T00:48:28.820Z,13.88
2019-02-18T00:50:56.646Z,19.70
2019-02-18T00:53:24.551Z,12.40
2019-02-18T00:55:52.426Z,13.25
2019-02-18T00:58:20.573Z,13.83
2019-02-18T01:00:48.736Z,10.80
2019-02-18T01:03:17.154Z,12.07
2019-02-18T01:05:45.408Z,16.82
2019-02-18T01:08:13.371Z,13.43
2019-02-18T01:10:41.370Z,17.27
2019-02-18T01:13:10.139Z,14.20
2019-02-18T01:15:38.037Z,13.55
2019-02-18T01:18:05.989Z,15.98
2019-02-18T01:20:33.931Z,22.73
2019-02-18T01:23:02.176Z,28.57
2019-02-18T01:25:30.494Z,28.17
2019-02-18T01:27:58.818Z,20.77
2019-02-18T01:30:27.204Z,25.25
2019-02-18T01:32:55.095Z,21.93
2019-02-18T01:35:23.054Z,20.65
2019-02-18T01:37:51.038Z,30.72
2019-02-18T01:40:19.210Z,25.88
2019-02-18T01:42:47.371Z,27.45
2019-02-18T01:45:15.889Z,30.27
2019-02-18T01:47:45.211Z,20.65
2019-02-18T01:50:14.739Z,20.72
2019-02-18T01:52:43.395Z,19.42
2019-02-18T01:55:13.780Z,18.60
2019-02-18T01:57:42.710Z,18.60
2019-02-18T02:00:30.379Z,18.85
2019-02-18T02:02:58.869Z,16.05
2019-02-18T02:05:27.772Z,18.02
2019-02-18T02:07:56.891Z,16.50
2019-02-18T02:10:25.325Z,17.25
2019-02-18T02:13:29.678Z,18.10
2019-02-18T02:16:01.024Z,17.55
2019-02-18T02:18:29.021Z,17.60
2019-02-18T02:20:59.382Z,19.23
2019-02-18T02:23:28.799Z,14.78
2019-02-18T02:25:57.751Z,19.00
2019-02-18T02:28:27.121Z,24.55
2019-02-18T02:30:56.021Z,16.23
2019-02-18T02:33:24.605Z,16.27
2019-02-18T02:35:52.767Z,16.75
2019-02-18T02:38:21.782Z,16.75
2019-02-18T02:40:50.897Z,20.25
2019-02-18T02:43:18.798Z,17.52
2019-02-18T02:45:46.723Z,14.63
2019-02-18T02:48:14.790Z,14.63
2019-02-18T02:50:42.799Z,17.12
2019-02-18T02:53:10.777Z,15.08
2019-02-18T02:55:38.726Z,18.15
2019-02-18T02:58:06.605Z,13.70
2019-02-18T03:00:34.684Z,19.95
2019-02-18T03:03:02.635Z,16.82
2019-02-18T03:05:31.290Z,18.82
2019-02-18T03:07:59.198Z,14.63
2019-02-18T03:10:27.079Z,13.05
2019-02-18T03:12:54.944Z,12.35
2019-02-18T03:15:22.825Z,12.82
2019-02-18T03:17:50.663Z,18.12
2019-02-18T03:20:18.849Z,13.90
2019-02-18T03:22:46.820Z,16.42
2019-02-18T03:25:28.162Z,11.25
2019-02-18T03:28:38.034Z,14.70
2019-02-18T03:31:20.379Z,17.10
2019-02-18T03:33:54.890Z,11.22
2019-02-18T03:36:23.064Z,14.30
2019-02-18T03:38:51.078Z,14.33
2019-02-18T03:41:19.014Z,17.67
2019-02-18T03:43:47.252Z,13.45
2019-02-18T03:46:15.693Z,16.82
2019-02-18T03:48:43.684Z,15.40
2019-02-18T03:51:12.358Z,14.20
2019-02-18T03:53:40.561Z,14.28
2019-02-18T03:56:08.698Z,12.18
2019-02-18T03:58:36.787Z,12.68
2019-02-18T04:01:04.724Z,12.95
2019-02-18T04:03:32.732Z,17.50
2019-02-18T04:06:00.619Z,14.60
2019-02-18T04:08:28.563Z,15.78
2019-02-18T04:10:56.897Z,15.78
2019-02-18T04:13:24.791Z,15.68
2019-02-18T04:15:52.949Z,18.92
2019-02-18T04:18:20.944Z,15.50
2019-02-18T04:20:48.806Z,17.17
2019-02-18T04:23:16.700Z,13.85
2019-02-18T04:25:44.927Z,16.15
2019-02-18T04:28:13.231Z,18.62
2019-02-18T04:30:41.291Z,26.95
2019-02-18T04:33:09.840Z,30.55
2019-02-18T04:35:37.732Z,25.20
2019-02-18T04:38:05.762Z,27.22
2019-02-18T04:40:33.956Z,22.30
2019-02-18T04:43:02.279Z,31.90
2019-02-18T04:45:30.285Z,24.37
2019-02-18T04:47:58.650Z,19.98
2019-02-18T04:50:26.516Z,22.45
2019-02-18T04:52:54.436Z,18.62
2019-02-18T04:55:22.347Z,19.50
2019-02-18T04:57:50.416Z,16.50
2019-02-18T05:00:18.269Z,20.35
2019-02-18T05:02:46.294Z,26.95
2019-02-18T05:05:14.248Z,15.53
2019-02-18T05:07:42.234Z,15.58
2019-02-18T05:10:10.153Z,14.65
2019-02-18T05:12:38.069Z,17.55
2019-02-18T05:15:06.192Z,17.37
2019-02-18T05:17:34.128Z,17.67
2019-02-18T05:20:02.057Z,21.17
2019-02-18T05:22:29.898Z,15.10
2019-02-18T05:24:57.893Z,14.43
2019-02-18T05:27:33.033Z,19.07
2019-02-18T05:29:55.641Z,15.68
2019-02-18T05:32:23.637Z,16.25
2019-02-18T05:34:51.627Z,15.28
2019-02-18T05:37:19.732Z,18.25
2019-02-18T05:39:47.755Z,28.02
2019-02-18T05:42:15.619Z,23.15
2019-02-18T05:44:43.857Z,29.63
2019-02-18T05:47:11.696Z,23.87
2019-02-18T05:49:39.694Z,20.20
2019-02-18T05:52:08.024Z,18.27
2019-02-18T05:54:36.305Z,19.87
2019-02-18T05:57:04.694Z,21.30
2019-02-18T05:59:32.663Z,20.15
2019-02-18T06:02:01.186Z,26.50
2019-02-18T06:04:29.622Z,21.37
2019-02-18T06:06:57.683Z,20.27
2019-02-18T06:09:29.864Z,20.77
2019-02-18T06:11:56.228Z,21.40
2019-02-18T06:14:26.373Z,19.15
2019-02-18T06:16:54.941Z,18.92
2019-02-18T06:19:22.957Z,15.72
2019-02-18T06:21:51.258Z,20.60
2019-02-18T06:24:19.347Z,20.08
2019-02-18T06:26:47.792Z,19.92
2019-02-18T06:29:15.965Z,17.48
2019-02-18T06:31:43.919Z,16.02
2019-02-18T06:34:11.980Z,18.92
2019-02-18T06:36:40.013Z,18.90
2019-02-18T06:39:08.041Z,14.90
2019-02-18T06:41:36.110Z,16.52
2019-02-18T06:44:04.356Z,14.13
2019-02-18T06:46:35.305Z,21.57
2019-02-18T06:49:14.896Z,17.00
2019-02-18T06:51:42.701Z,19.48
2019-02-18T06:54:11.194Z,13.55
2019-02-18T06:57:07.853Z,15.55
2019-02-18T06:59:48.898Z,16.10
2019-02-18T07:02:42.446Z,18.85
2019-02-18T07:05:32.944Z,14.38
2019-02-18T07:08:19.016Z,16.02
2019-02-18T07:10:55.641Z,14.65
2019-02-18T07:13:23.746Z,15.93
2019-02-18T07:15:51.815Z,17.95
2019-02-18T07:18:20.150Z,17.42
2019-02-18T07:20:48.497Z,19.40
2019-02-18T07:23:16.359Z,16.27
2019-02-18T07:25:44.444Z,15.35
2019-02-18T07:28:12.545Z,17.15
2019-02-18T07:30:40.728Z,20.02
2019-02-18T07:33:08.729Z,16.67
2019-02-18T07:35:36.841Z,21.40
2019-02-18T07:38:04.854Z,24.98
2019-02-18T07:40:33.019Z,22.50
2019-02-18T07:43:00.891Z,24.30
2019-02-18T07:45:28.848Z,26.23
2019-02-18T07:47:57.215Z,21.55
2019-02-18T07:50:25.474Z,22.13
2019-02-18T07:52:53.460Z,25.77
2019-02-18T07:55:21.409Z,25.48
2019-02-18T07:57:49.537Z,21.45
2019-02-18T08:00:17.861Z,27.00
2019-02-18T08:02:46.620Z,23.90
2019-02-18T08:05:20.652Z,20.05
2019-02-18T08:07:49.099Z,23.55
2019-02-18T08:10:17.204Z,14.98
2019-02-18T08:12:45.241Z,14.35
2019-02-18T08:15:13.292Z,14.98
2019-02-18T08:17:41.652Z,14.58
2019-02-18T08:20:09.700Z,11.93
2019-02-18T08:22:38.344Z,9.35
2019-02-18T08:25:07.556Z,11.80
2019-02-18T08:27:36.137Z,9.80
2019-02-18T08:30:05.677Z,14.73
2019-02-18T08:32:33.824Z,9.35
2019-02-18T08:35:02.320Z,11.75
2019-02-18T08:37:30.534Z,11.53
2019-02-18T08:39:58.941Z,8.88
2019-02-18T08:42:27.112Z,8.03
2019-02-18T08:44:55.461Z,10.38
2019-02-18T08:47:23.648Z,8.30
2019-02-18T08:49:51.705Z,9.48
2019-02-18T08:52:20.459Z,9.58
2019-02-18T08:54:56.233Z,10.35
2019-02-18T08:57:18.811Z,10.05
2019-02-18T08:59:46.957Z,10.63
2019-02-18T09:02:15.283Z,13.58
2019-02-18T09:04:43.513Z,12.25
2019-02-18T09:07:11.511Z,13.58
2019-02-18T09:09:39.563Z,8.35
2019-02-18T09:12:07.512Z,8.90
2019-02-18T09:14:35.605Z,8.38
2019-02-18T09:17:03.666Z,8.73
2019-02-18T09:19:31.751Z,8.73
2019-02-18T09:22:22.027Z,8.78
2019-02-18T09:25:01.651Z,9.35
2019-02-18T09:27:29.636Z,8.98
2019-02-18T09:29:57.727Z,9.70
2019-02-18T09:32:26.169Z,10.25
2019-02-18T09:35:01.583Z,7.45
2019-02-18T09:37:24.368Z,7.42
2019-02-18T09:39:52.331Z,8.38
2019-02-18T09:42:20.267Z,8.85
2019-02-18T09:44:48.654Z,8.75
2019-02-18T09:47:16.710Z,8.73
2019-02-18T09:49:45.319Z,8.70
2019-02-18T09:52:13.387Z,10.30
2019-02-18T09:54:41.384Z,13.03
2019-02-18T09:57:09.504Z,11.97
2019-02-18T09:59:37.675Z,9.08
2019-02-18T10:02:05.723Z,10.08
2019-02-18T10:04:34.365Z,9.63
2019-02-18T10:07:02.355Z,10.10
2019-02-18T10:09:30.759Z,7.33
2019-02-18T10:11:58.679Z,18.67
2019-02-18T10:14:26.727Z,8.75
2019-02-18T10:16:54.724Z,8.50
2019-02-18T10:19:22.791Z,10.00
2019-02-18T10:21:50.873Z,9.45
2019-02-18T10:24:18.835Z,9.58
2019-02-18T10:26:46.783Z,8.63
2019-02-18T10:29:15.077Z,8.18
2019-02-18T10:31:43.086Z,10.43
2019-02-18T10:34:11.290Z,14.75
2019-02-18T10:36:39.323Z,7.08
2019-02-18T10:39:07.523Z,8.98
2019-02-18T10:41:35.670Z,6.45
2019-02-18T10:44:03.764Z,7.45
2019-02-18T10:46:31.687Z,8.48
2019-02-18T10:48:59.944Z,8.83
2019-02-18T10:51:27.957Z,7.90
2019-02-18T10:53:56.031Z,8.18
2019-02-18T10:56:24.276Z,8.58
2019-02-18T10:58:53.314Z,9.35
2019-02-18T11:01:21.439Z,6.40
2019-02-18T11:03:49.616Z,11.73
2019-02-18T11:06:17.481Z,8.43
2019-02-18T11:08:45.406Z,6.62
2019-02-18T11:11:16.949Z,10.48
2019-02-18T11:13:43.247Z,11.70
2019-02-18T11:16:11.305Z,8.95
2019-02-18T11:18:39.205Z,7.87
2019-02-18T11:21:07.692Z,9.90
2019-02-18T11:23:35.940Z,11.83
2019-02-18T11:26:03.980Z,6.10
2019-02-18T11:28:32.374Z,12.70
2019-02-18T11:31:00.673Z,9.73
2019-02-18T11:33:28.702Z,8.38
2019-02-18T11:35:57.766Z,8.58
2019-02-18T11:38:25.814Z,7.47
2019-02-18T11:40:53.989Z,7.85
2019-02-18T11:43:21.822Z,8.25
2019-02-18T11:45:49.896Z,6.47
2019-02-18T11:48:17.974Z,13.58
2019-02-18T11:50:46.296Z,7.60
2019-02-18T11:53:14.232Z,6.78
2019-02-18T11:55:42.380Z,6.55
2019-02-18T11:58:10.384Z,8.63
2019-02-18T12:00:38.432Z,8.38
2019-02-18T12:03:11.670Z,7.53
2019-02-18T12:05:36.464Z,6.50
2019-02-18T12:08:05.010Z,8.05
2019-02-18T12:10:33.063Z,7.90
2019-02-18T12:13:01.032Z,8.45
2019-02-18T12:15:29.062Z,6.67
2019-02-18T12:17:57.042Z,11.73
2019-02-18T12:20:25.331Z,7.47
2019-02-18T12:22:53.334Z,9.65
2019-02-18T12:25:21.714Z,11.12
2019-02-18T12:27:49.649Z,9.25
2019-02-18T12:30:18.113Z,6.95
2019-02-18T12:32:46.213Z,12.35
2019-02-18T12:35:14.386Z,7.55
2019-02-18T12:37:42.265Z,12.70
2019-02-18T12:40:10.533Z,12.55
2019-02-18T12:42:38.538Z,8.75
2019-02-18T12:45:07.659Z,8.23
2019-02-18T12:47:35.570Z,10.60
2019-02-18T12:50:04.012Z,10.23
2019-02-18T12:52:32.021Z,7.17
2019-02-18T12:55:00.506Z,10.48
2019-02-18T12:57:28.890Z,12.23
2019-02-18T12:59:57.297Z,8.35
2019-02-18T13:02:25.306Z,8.88
2019-02-18T13:04:53.865Z,11.15
2019-02-18T13:07:22.023Z,9.98
2019-02-18T13:09:50.006Z,8.08
2019-02-18T13:12:18.037Z,8.55
2019-02-18T13:14:46.100Z,7.55
2019-02-18T13:17:14.080Z,11.08
2019-02-18T13:19:42.377Z,10.00
2019-02-18T13:22:10.384Z,11.45
2019-02-18T13:24:38.494Z,6.78
2019-02-18T13:27:06.709Z,7.42
2019-02-18T13:29:34.683Z,7.22
2019-02-18T13:32:02.657Z,9.10
2019-02-18T13:34:31.310Z,10.65
2019-02-18T13:37:02.239Z,9.93
2019-02-18T13:39:30.657Z,9.10
2019-02-18T13:42:07.088Z,13.30
2019-02-18T13:44:29.020Z,8.88
2019-02-18T13:46:57.346Z,10.15
2019-02-18T13:49:25.601Z,8.38
2019-02-18T13:51:56.644Z,9.60
2019-02-18T13:54:25.051Z,10.45
2019-02-18T13:56:53.927Z,12.35
2019-02-18T13:59:22.812Z,9.33
2019-02-18T14:01:51.680Z,11.00
2019-02-18T14:04:20.447Z,8.73
2019-02-18T14:06:49.159Z,8.95
2019-02-18T14:09:18.428Z,10.15
2019-02-18T14:11:49.079Z,10.38
2019-02-18T14:14:17.580Z,10.40
2019-02-18T14:16:46.536Z,10.20
2019-02-18T14:19:16.766Z,9.70
2019-02-18T14:21:46.424Z,11.20
2019-02-18T14:24:16.074Z,9.13
2019-02-18T14:26:44.958Z,13.25
2019-02-18T14:29:14.293Z,10.55
2019-02-18T14:31:44.366Z,10.63
2019-02-18T14:34:12.935Z,9.63
2019-02-18T14:36:41.545Z,9.63
2019-02-18T14:39:18.972Z,9.45
2019-02-18T14:41:47.913Z,10.88
2019-02-18T14:44:16.006Z,8.80
2019-02-18T14:46:44.865Z,9.93
2019-02-18T14:49:14.051Z,9.65
2019-02-18T14:51:42.370Z,8.65
2019-02-18T14:54:11.191Z,9.40
2019-02-18T14:56:41.046Z,10.90
2019-02-18T14:59:09.153Z,9.13
2019-02-18T15:01:37.369Z,8.55
2019-02-18T15:04:06.164Z,8.88
2019-02-18T15:06:34.928Z,12.40
2019-02-18T15:09:03.501Z,10.65
2019-02-18T15:11:32.134Z,8.08
2019-02-18T15:14:00.542Z,8.20
2019-02-18T15:16:29.514Z,8.18
2019-02-18T15:18:58.050Z,8.28
2019-02-18T15:21:26.874Z,10.78
2019-02-18T15:23:55.222Z,7.53
2019-02-18T15:26:24.533Z,6.72
2019-02-18T15:28:53.618Z,10.88
2019-02-18T15:31:23.054Z,8.78
2019-02-18T15:33:51.128Z,9.73
2019-02-18T15:36:19.269Z,7.40
2019-02-18T15:38:48.619Z,7.78
2019-02-18T15:41:17.454Z,6.75
2019-02-18T15:43:46.245Z,7.30
2019-02-18T15:46:14.312Z,8.58
2019-02-18T15:48:42.772Z,7.45
2019-02-18T15:51:10.835Z,6.87
2019-02-18T15:53:39.090Z,7.58
2019-02-18T15:56:07.409Z,7.35
2019-02-18T15:58:35.596Z,9.80
2019-02-18T16:01:05.184Z,9.28
2019-02-18T16:03:33.339Z,12.50
2019-02-18T16:06:01.710Z,10.08
2019-02-18T16:08:30.522Z,8.20
2019-02-18T16:10:58.464Z,10.08
2019-02-18T16:13:27.668Z,7.22
2019-02-18T16:15:55.632Z,7.50
2019-02-18T16:18:24.118Z,9.20
2019-02-18T16:20:52.404Z,9.18
2019-02-18T16:23:20.411Z,8.18
2019-02-18T16:25:48.884Z,10.58
2019-02-18T16:28:17.001Z,8.55
2019-02-18T16:30:45.051Z,9.75
2019-02-18T16:33:13.298Z,11.15
2019-02-18T16:35:41.817Z,9.80
2019-02-18T16:38:10.194Z,11.35
2019-02-18T16:40:38.371Z,9.25
2019-02-18T16:43:06.376Z,8.68
2019-02-18T16:45:34.650Z,9.18
2019-02-18T16:48:03.007Z,8.08
2019-02-18T16:50:30.894Z,8.50
2019-02-18T16:52:58.787Z,11.12
2019-02-18T16:55:26.967Z,12.55
2019-02-18T16:57:55.303Z,9.45
2019-02-18T17:00:28.287Z,9.48
2019-02-18T17:02:56.343Z,13.08
2019-02-18T17:05:24.449Z,16.80
2019-02-18T17:07:52.629Z,13.48
2019-02-18T17:10:20.845Z,13.03
2019-02-18T17:12:49.226Z,12.50
2019-02-18T17:15:17.656Z,12.93
2019-02-18T17:17:45.973Z,8.58
2019-02-18T17:20:14.264Z,10.60
2019-02-18T17:22:42.141Z,12.33
2019-02-18T17:25:10.378Z,8.80
2019-02-18T17:27:38.300Z,10.75
2019-02-18T17:30:08.635Z,7.20
2019-02-18T17:32:37.271Z,10.03
2019-02-18T17:35:07.488Z,7.30
2019-02-18T17:37:36.807Z,8.43
2019-02-18T17:40:05.772Z,6.20
2019-02-18T17:42:33.678Z,7.17
2019-02-18T17:45:02.229Z,10.13
2019-02-18T17:47:30.189Z,9.28
2019-02-18T17:49:58.570Z,9.13
2019-02-18T17:52:26.596Z,9.68
2019-02-18T17:54:54.725Z,8.38
2019-02-18T17:57:23.350Z,5.62
2019-02-18T17:59:51.776Z,6.00
2019-02-18T18:02:20.223Z,7.40
2019-02-18T18:04:48.442Z,12.68
2019-02-18T18:07:16.493Z,16.05
2019-02-18T18:09:44.772Z,14.38
2019-02-18T18:12:12.838Z,16.23
2019-02-18T18:14:40.891Z,9.78
2019-02-18T18:17:11.688Z,8.60
2019-02-18T18:19:39.648Z,9.30
2019-02-18T18:22:08.007Z,9.98
2019-02-18T18:24:36.100Z,9.98
2019-02-18T18:27:04.020Z,16.80
2019-02-18T18:29:31.963Z,24.92
2019-02-18T18:32:00.015Z,21.37
2019-02-18T18:34:28.291Z,19.62
2019-02-18T18:36:56.276Z,15.28
2019-02-18T18:39:24.189Z,12.37
2019-02-18T18:41:52.338Z,12.60
2019-02-18T18:44:20.361Z,11.43
2019-02-18T18:46:48.381Z,13.32
2019-02-18T18:49:16.681Z,13.70
2019-02-18T18:51:44.759Z,13.50
2019-02-18T18:54:13.203Z,17.20
2019-02-18T18:56:41.376Z,12.63
2019-02-18T18:59:09.529Z,11.90
2019-02-18T19:01:38.119Z,10.80
2019-02-18T19:04:06.066Z,10.25
2019-02-18T19:06:34.976Z,13.55
2019-02-18T19:09:03.724Z,8.55
2019-02-18T19:11:31.702Z,12.23
2019-02-18T19:13:59.817Z,9.30
2019-02-18T19:16:27.940Z,10.93
2019-02-18T19:18:56.423Z,13.10
2019-02-18T19:21:24.864Z,11.28
2019-02-18T19:23:52.770Z,11.88
2019-02-18T19:26:20.808Z,16.75
2019-02-18T19:28:48.777Z,13.60
2019-02-18T19:31:16.955Z,14.68
2019-02-18T19:33:44.877Z,11.97
2019-02-18T19:36:13.108Z,10.82
2019-02-18T19:38:41.410Z,13.38
2019-02-18T19:41:09.501Z,15.95
2019-02-18T19:43:37.743Z,14.68
2019-02-18T19:46:05.837Z,14.30
2019-02-18T19:48:33.743Z,14.65
2019-02-18T19:51:02.964Z,17.02
2019-02-18T19:53:31.076Z,17.85
2019-02-18T19:55:59.089Z,17.95
2019-02-18T19:58:27.114Z,17.12
2019-02-18T20:00:55.161Z,16.67
2019-02-18T20:03:23.334Z,22.02
2019-02-18T20:05:51.868Z,21.85
2019-02-18T20:08:20.115Z,22.65
2019-02-18T20:10:48.425Z,21.60
2019-02-18T20:13:16.421Z,22.73
2019-02-18T20:15:44.558Z,21.65
2019-02-18T20:18:13.806Z,17.57
2019-02-18T20:20:42.245Z,18.50
2019-02-18T20:23:10.741Z,18.00
2019-02-18T20:25:39.227Z,18.20
2019-02-18T20:28:07.462Z,13.93
2019-02-18T20:30:35.703Z,13.65
2019-02-18T20:33:04.063Z,15.58
2019-02-18T20:35:32.069Z,12.88
2019-02-18T20:38:00.151Z,14.05
2019-02-18T20:40:28.146Z,15.50
2019-02-18T20:42:56.107Z,23.87
2019-02-18T20:45:24.026Z,15.15
2019-02-18T20:47:52.116Z,25.90
2019-02-18T20:50:20.049Z,14.75
2019-02-18T20:52:48.438Z,18.10
2019-02-18T20:55:17.326Z,17.15
2019-02-18T20:57:45.475Z,17.17
2019-02-18T21:00:16.434Z,15.93
2019-02-18T21:02:44.854Z,12.20
2019-02-18T21:05:12.855Z,16.67
2019-02-18T21:07:40.847Z,18.37
2019-02-18T21:10:10.760Z,16.55
2019-02-18T21:12:38.891Z,19.07
2019-02-18T21:15:07.352Z,16.12
2019-02-18T21:17:35.406Z,18.62
2019-02-18T21:20:04.556Z,18.27
2019-02-18T21:22:38.767Z,17.42
2019-02-18T21:25:07.326Z,19.12
2019-02-18T21:27:35.349Z,20.23
2019-02-18T21:30:03.554Z,18.20
2019-02-18T21:32:31.574Z,17.52
2019-02-18T21:34:59.560Z,14.98
2019-02-18T21:37:27.738Z,16.90
2019-02-18T21:39:55.858Z,19.60
2019-02-18T21:42:23.971Z,19.27
2019-02-18T21:44:52.025Z,18.87
2019-02-18T21:47:20.369Z,17.98
2019-02-18T21:49:51.094Z,15.80
2019-02-18T21:52:19.231Z,17.75
2019-02-18T21:54:47.229Z,17.60
2019-02-18T21:57:15.711Z,16.70
2019-02-18T21:59:43.915Z,20.82
2019-02-18T22:02:12.312Z,17.27
2019-02-18T22:04:40.427Z,20.17
2019-02-18T22:07:08.708Z,19.45
2019-02-18T22:09:42.126Z,20.72
2019-02-18T22:12:10.935Z,20.02
2019-02-18T22:14:38.838Z,16.50
2019-02-18T22:17:06.718Z,19.95
2019-02-18T22:19:34.740Z,20.72
2019-02-18T22:22:03.144Z,19.75
2019-02-18T22:24:31.409Z,19.70
2019-02-18T22:26:59.671Z,21.95
2019-02-18T22:29:29.836Z,17.75
2019-02-18T22:31:58.089Z,15.93
2019-02-18T22:34:26.146Z,16.02
2019-02-18T22:36:54.476Z,17.67
2019-02-18T22:39:22.884Z,13.45
2019-02-18T22:41:51.501Z,21.87
2019-02-18T22:44:20.774Z,18.05
2019-02-18T22:46:50.082Z,16.23
2019-02-18T22:49:19.210Z,14.13
2019-02-18T22:51:47.743Z,15.88
2019-02-18T22:54:16.214Z,14.38
2019-02-18T22:56:44.972Z,17.95
2019-02-18T22:59:13.711Z,14.80
2019-02-18T23:01:42.605Z,17.23
2019-02-18T23:04:10.715Z,18.27
2019-02-18T23:06:39.231Z,16.45
2019-02-18T23:09:12.037Z,14.95
2019-02-18T23:11:40.630Z,15.15
2019-02-18T23:14:08.842Z,12.82
2019-02-18T23:16:37.274Z,14.30
2019-02-18T23:19:06.370Z,22.00
2019-02-18T23:21:34.619Z,14.18
2019-02-18T23:24:02.847Z,16.93
2019-02-18T23:26:30.972Z,13.80
2019-02-18T23:28:59.263Z,13.58
2019-02-18T23:31:27.747Z,13.10
2019-02-18T23:33:55.869Z,13.03
2019-02-18T23:36:24.022Z,16.70
2019-02-18T23:38:52.429Z,17.17
2019-02-18T23:41:20.478Z,15.90
2019-02-18T23:43:48.733Z,9.70
2019-02-18T23:46:16.863Z,11.12
2019-02-18T23:48:44.945Z,9.48
2019-02-18T23:51:12.996Z,12.43
2019-02-18T23:53:41.392Z,11.28
2019-02-18T23:56:09.391Z,10.75
2019-02-18T23:58:37.645Z,13.75
